createdAt,value
2018-07-14T01:35:01.098Z,0.1
2018-07-14T01:37:06.095Z,0.2
2018-07-14T01:38:01.094Z,0.3
2018-07-14T01:40:01.361Z,0.4
2018-07-14T01:41:01.096Z,0.5
2018-07-14T01:43:01.122Z,0.6
2018-07-14T01:44:01.099Z,0.7
2018-07-14T01:45:01.303Z,0.7
2018-07-14T01:46:01.096Z,0.8
2018-07-14T01:47:01.122Z,0.9
2018-07-14T01:49:01.167Z,1.0
2018-07-14T01:52:01.240Z,1.1
2018-07-14T01:55:01.083Z,1.2
2018-07-14T01:56:01.054Z,1.3
2018-07-14T01:57:01.084Z,1.5
2018-07-14T01:58:01.225Z,1.6
2018-07-14T01:59:01.091Z,1.8
2018-07-14T02:00:01.087Z,2.0
2018-07-14T02:01:01.087Z,2.3
2018-07-14T02:02:01.083Z,2.5
2018-07-14T02:03:01.231Z,2.9
2018-07-14T02:04:01.088Z,3.3
2018-07-14T02:05:01.087Z,3.7
2018-07-14T02:06:01.095Z,4.1
2018-07-14T02:07:01.056Z,4.7
2018-07-14T02:08:01.226Z,5.1
2018-07-14T02:09:01.087Z,5.7
2018-07-14T02:10:01.091Z,6.3
2018-07-14T02:11:01.091Z,6.9
2018-07-14T02:12:01.092Z,7.5
2018-07-14T02:13:01.232Z,8.3
2018-07-14T02:14:01.090Z,9.2
2018-07-14T02:15:01.092Z,10.1
2018-07-14T02:16:01.100Z,11.2
2018-07-14T02:17:01.093Z,12.5
2018-07-14T02:18:01.230Z,13.9
2018-07-14T02:19:01.091Z,15.4
2018-07-14T02:20:01.094Z,17.1
2018-07-14T02:21:01.092Z,19.1
2018-07-14T02:22:01.091Z,21.2
2018-07-14T02:23:01.269Z,23.6
2018-07-14T02:24:01.129Z,26.3
2018-07-14T02:25:01.092Z,29.3
2018-07-14T02:26:01.093Z,32.6
2018-07-14T02:27:01.067Z,36.3
2018-07-14T02:28:01.232Z,40.4
2018-07-14T02:29:01.093Z,44.9
2018-07-14T02:30:01.105Z,49.9
2018-07-14T02:31:01.093Z,55.3
2018-07-14T02:32:01.092Z,61.2
2018-07-14T02:33:01.277Z,67.7
2018-07-14T02:34:01.095Z,74.9
2018-07-14T02:35:01.093Z,82.9
2018-07-14T02:36:01.097Z,91.5
2018-07-14T02:37:01.098Z,101.3
2018-07-14T02:38:01.312Z,112.1
2018-07-14T02:39:01.097Z,123.9
2018-07-14T02:40:01.103Z,136.6
2018-07-14T02:41:01.100Z,150.1
2018-07-14T02:42:01.096Z,164.4
2018-07-14T02:43:01.244Z,179.7
2018-07-14T02:44:06.096Z,196.3
2018-07-14T02:45:01.100Z,214.6
2018-07-14T02:46:01.097Z,234.7
2018-07-14T02:47:01.099Z,257.2
2018-07-14T02:48:01.242Z,282.1
2018-07-14T02:49:01.161Z,309.1
2018-07-14T02:50:01.102Z,338.3
2018-07-14T02:51:01.098Z,369.7
2018-07-14T02:52:01.109Z,402.9
2018-07-14T02:53:01.245Z,437.7
2018-07-14T02:54:06.106Z,475.4
2018-07-14T02:55:01.103Z,516.3
2018-07-14T02:56:01.107Z,558.6
2018-07-14T02:57:01.106Z,602.0
2018-07-14T02:58:01.242Z,647.7
2018-07-14T03:00:01.213Z,710.1
2018-07-14T03:01:01.088Z,779.5
2018-07-14T03:02:01.082Z,854.1
2018-07-14T03:03:01.053Z,932.1
2018-07-14T03:04:01.227Z,1012.3
2018-07-14T03:05:01.083Z,1095.1
2018-07-14T03:06:01.093Z,1179.1
2018-07-14T03:07:01.087Z,1265.1
2018-07-14T03:08:01.129Z,1357.8
2018-07-14T03:09:01.270Z,1461.3
2018-07-14T03:10:01.091Z,1575.6
2018-07-14T03:11:01.087Z,1695.8
2018-07-14T03:12:01.087Z,1822.7
2018-07-14T03:13:01.089Z,1956.3
2018-07-14T03:14:01.268Z,2095.6
2018-07-14T03:15:01.148Z,2225.9
2018-07-14T03:16:01.092Z,2354.8
2018-07-14T03:17:01.060Z,2483.0
2018-07-14T03:18:01.059Z,2617.5
2018-07-14T03:19:01.266Z,2760.4
2018-07-14T03:20:01.097Z,2911.5
2018-07-14T03:21:01.090Z,3069.5
2018-07-14T03:22:01.090Z,3235.9
2018-07-14T03:23:01.099Z,3408.7
2018-07-14T03:24:01.272Z,3587.7
2018-07-14T03:25:01.093Z,3770.6
2018-07-14T03:26:01.090Z,3961.1
2018-07-14T03:27:01.091Z,4160.5
2018-07-14T03:28:01.095Z,4364.7
2018-07-14T03:29:01.297Z,4568.5
2018-07-14T03:30:01.092Z,4775.7
2018-07-14T03:31:01.059Z,4989.6
2018-07-14T03:32:01.092Z,5214.8
2018-07-14T03:33:01.091Z,5447.9
2018-07-14T03:34:01.275Z,5693.7
2018-07-14T03:35:01.092Z,5946.2
2018-07-14T03:36:01.093Z,6207.4
2018-07-14T03:37:01.098Z,6479.1
2018-07-14T03:38:01.065Z,6757.3
2018-07-14T03:39:01.349Z,7033.3
2018-07-14T03:40:01.100Z,7319.7
2018-07-14T03:41:01.095Z,7621.8
2018-07-14T03:42:01.175Z,7935.6
2018-07-14T03:43:01.061Z,8251.5
2018-07-14T03:44:01.243Z,8574.2
2018-07-14T03:45:06.101Z,8886.3
2018-07-14T03:46:01.096Z,9188.1
2018-07-14T03:47:01.098Z,9486.9
2018-07-14T03:48:01.100Z,9794.5
2018-07-14T03:49:01.303Z,10107.8
2018-07-14T03:50:06.097Z,10435.4
2018-07-14T03:51:01.066Z,10811.8
2018-07-14T03:52:01.099Z,11198.7
2018-07-14T03:53:01.099Z,11549.2
2018-07-14T03:54:01.244Z,11882.8
2018-07-14T03:55:01.105Z,12202.5
2018-07-14T03:56:01.104Z,12498.9
2018-07-14T03:57:01.222Z,12761.1
2018-07-14T03:59:01.354Z,13041.5
2018-07-14T04:00:01.124Z,13319.8
2018-07-14T04:01:01.085Z,13632.2
2018-07-14T04:02:01.084Z,14002.0
2018-07-14T04:03:01.111Z,14416.9
2018-07-14T04:04:01.232Z,14878.4
2018-07-14T04:05:01.090Z,15362.1
2018-07-14T04:06:01.087Z,15849.8
2018-07-14T04:07:01.057Z,16314.5
2018-07-14T04:08:01.111Z,16806.1
2018-07-14T04:09:01.226Z,17349.1
2018-07-14T04:10:01.088Z,17866.5
2018-07-14T04:11:01.090Z,18372.9
2018-07-14T04:12:01.085Z,18902.5
2018-07-14T04:13:06.091Z,19449.8
2018-07-14T04:14:01.231Z,19971.9
2018-07-14T04:15:01.088Z,20527.8
2018-07-14T04:16:01.088Z,21134.0
2018-07-14T04:17:01.056Z,21732.4
2018-07-14T04:18:06.094Z,22302.5
2018-07-14T04:19:01.229Z,22846.4
2018-07-14T04:20:01.091Z,23456.9
2018-07-14T04:21:01.093Z,24088.7
2018-07-14T04:22:01.090Z,24661.2
2018-07-14T04:23:06.088Z,25198.3
2018-07-14T04:24:01.234Z,25680.5
2018-07-14T04:25:01.093Z,26151.5
2018-07-14T04:26:01.093Z,26548.3
2018-07-14T04:27:06.093Z,26930.5
2018-07-14T04:28:01.143Z,27420.5
2018-07-14T04:29:01.305Z,27960.5
2018-07-14T04:30:01.095Z,28612.1
2018-07-14T04:31:01.097Z,29132.0
2018-07-14T04:32:01.176Z,29475.6
2018-07-14T04:33:01.091Z,29841.3
2018-07-14T04:34:01.242Z,30256.9
2018-07-14T04:35:01.096Z,30487.0
2018-07-14T04:36:01.099Z,30606.7
2018-07-14T04:37:06.095Z,30779.7
2018-07-14T04:38:01.097Z,30904.5
2018-07-14T04:39:01.234Z,30976.1
2018-07-14T04:40:01.093Z,31074.1
2018-07-14T04:41:01.093Z,31304.9
2018-07-14T04:42:01.183Z,31547.8
2018-07-14T04:43:01.098Z,31694.1
2018-07-14T04:44:01.239Z,31769.5
2018-07-14T04:45:01.097Z,31693.3
2018-07-14T04:46:01.098Z,31724.0
2018-07-14T04:47:06.100Z,31943.3
2018-07-14T04:48:01.101Z,32168.5
2018-07-14T04:49:01.239Z,32405.9
2018-07-14T04:50:01.095Z,32848.6
2018-07-14T04:51:01.099Z,33379.8
2018-07-14T04:52:06.106Z,33952.7
2018-07-14T04:53:01.156Z,34651.3
2018-07-14T04:54:01.240Z,35544.1
2018-07-14T04:55:06.097Z,36573.1
2018-07-14T04:56:01.099Z,37652.9
2018-07-14T04:57:01.097Z,38665.0
2018-07-14T04:58:01.069Z,39501.1
2018-07-14T04:59:01.240Z,40412.0
2018-07-14T05:00:06.099Z,41482.6
2018-07-14T05:01:01.106Z,42558.5
2018-07-14T05:02:01.102Z,43514.0
2018-07-14T05:03:01.101Z,44385.3
2018-07-14T05:04:01.243Z,45206.7
2018-07-14T05:05:01.129Z,46089.5
2018-07-14T05:06:01.099Z,46988.0
2018-07-14T05:07:01.107Z,47860.2
2018-07-14T05:08:01.101Z,48570.2
2018-07-14T05:10:01.390Z,49278.1
2018-07-14T05:11:01.100Z,50273.3
2018-07-14T05:12:01.090Z,51214.3
2018-07-14T05:13:01.093Z,52050.7
2018-07-14T05:14:01.101Z,52827.7
2018-07-14T05:15:01.240Z,53475.1
2018-07-14T05:16:06.095Z,54142.0
2018-07-14T05:17:01.098Z,54621.0
2018-07-14T05:18:01.063Z,54754.6
2018-07-14T05:19:01.098Z,54522.0
2018-07-14T05:20:01.237Z,53941.7
2018-07-14T05:21:06.097Z,53193.5
2018-07-14T05:22:01.099Z,52868.5
2018-07-14T05:23:01.096Z,52849.3
2018-07-14T05:24:01.094Z,53010.4
2018-07-14T05:25:01.239Z,53154.5
2018-07-14T05:26:06.097Z,52808.4
2018-07-14T05:27:01.096Z,52115.3
2018-07-14T05:28:01.099Z,51421.9
2018-07-14T05:29:01.098Z,51432.6
2018-07-14T05:30:01.265Z,52109.4
2018-07-14T05:31:01.122Z,52599.5
2018-07-14T05:32:01.114Z,53210.1
2018-07-14T05:33:01.098Z,54220.5
2018-07-14T05:40:00.453Z,65535.0
2018-07-14T06:00:00.928Z,65535.0
2018-07-14T06:15:00.849Z,65535.0
2018-07-14T06:29:00.965Z,65251.9
2018-07-14T06:30:00.715Z,64440.4
2018-07-14T06:31:00.715Z,63292.2
2018-07-14T06:32:00.747Z,61958.1
2018-07-14T06:33:00.741Z,60648.4
2018-07-14T06:34:00.860Z,59586.5
2018-07-14T06:35:00.712Z,58902.9
2018-07-14T06:36:00.684Z,58512.1
2018-07-14T06:37:00.718Z,58258.6
2018-07-14T06:38:00.741Z,58047.6
2018-07-14T06:39:00.860Z,57882.3
2018-07-14T06:40:00.714Z,57873.3
2018-07-14T06:42:00.712Z,57654.4
2018-07-14T06:43:00.746Z,56971.9
2018-07-14T06:44:00.863Z,56198.6
2018-07-14T06:45:00.716Z,55669.3
2018-07-14T06:46:00.732Z,55322.2
2018-07-14T06:47:00.688Z,55082.1
2018-07-14T06:48:00.745Z,54786.8
2018-07-14T06:49:00.862Z,54242.1
2018-07-14T06:50:00.724Z,53595.2
2018-07-14T06:51:00.720Z,53026.7
2018-07-14T06:52:00.716Z,52505.1
2018-07-14T06:53:00.765Z,51860.3
2018-07-14T06:54:00.865Z,50910.7
2018-07-14T06:55:00.722Z,49720.0
2018-07-14T06:56:00.721Z,48409.5
2018-07-14T06:57:00.721Z,47194.8
2018-07-14T06:58:00.754Z,46291.0
2018-07-14T06:59:00.835Z,45684.0
2018-07-14T07:00:00.753Z,45368.8
2018-07-14T07:01:00.723Z,45234.0
2018-07-14T07:02:00.721Z,45273.9
2018-07-14T07:03:00.724Z,45416.2
2018-07-14T07:04:00.867Z,45520.7
2018-07-14T07:05:00.745Z,45284.1
2018-07-14T07:06:00.724Z,44642.8
2018-07-14T07:07:00.692Z,43820.6
2018-07-14T07:08:00.724Z,43216.4
2018-07-14T07:09:00.874Z,42883.5
2018-07-14T07:10:00.764Z,42509.1
2018-07-14T07:11:00.750Z,42241.5
2018-07-14T07:12:00.737Z,42208.5
2018-07-14T07:13:00.732Z,42377.8
2018-07-14T07:14:00.877Z,42597.3
2018-07-14T07:15:00.753Z,42763.8
2018-07-14T07:16:00.735Z,42850.4
2018-07-14T07:17:00.734Z,42781.0
2018-07-14T07:18:00.729Z,42591.7
2018-07-14T07:19:00.875Z,42382.5
2018-07-14T07:20:00.765Z,42106.6
2018-07-14T07:21:00.726Z,41641.7
2018-07-14T07:22:00.727Z,40948.1
2018-07-14T07:23:00.733Z,39958.2
2018-07-14T07:24:00.874Z,38882.5
2018-07-14T07:25:00.755Z,37942.2
2018-07-14T07:26:00.731Z,37036.7
2018-07-14T07:27:00.736Z,36048.8
2018-07-14T07:28:00.740Z,35219.9
2018-07-14T07:29:00.928Z,34788.6
2018-07-14T07:30:00.735Z,34683.9
2018-07-14T07:31:00.731Z,34862.5
2018-07-14T07:32:00.735Z,35399.3
2018-07-14T07:33:00.731Z,36358.7
2018-07-14T07:34:00.936Z,37778.2
2018-07-14T07:35:00.771Z,39621.2
2018-07-14T07:36:00.700Z,41686.8
2018-07-14T07:37:00.750Z,43977.6
2018-07-14T07:38:00.744Z,46427.6
2018-07-14T07:39:00.930Z,48951.2
2018-07-14T07:40:00.733Z,51465.5
2018-07-14T07:41:00.736Z,53949.0
2018-07-14T07:42:00.737Z,56403.6
2018-07-14T07:43:00.735Z,58649.4
2018-07-14T07:44:00.915Z,60524.7
2018-07-14T07:45:00.732Z,62118.8
2018-07-14T07:46:00.736Z,63483.8
2018-07-14T07:47:00.739Z,64550.7
2018-07-14T07:48:00.735Z,65243.2
2018-07-14T07:49:00.906Z,65535.0
2018-07-14T08:00:00.989Z,65535.0
2018-07-14T08:15:00.949Z,65535.0
2018-07-14T08:30:01.067Z,65535.0
2018-07-14T08:45:00.958Z,65535.0
2018-07-14T09:00:00.964Z,65535.0
2018-07-14T09:15:00.999Z,65535.0
2018-07-14T09:30:01.042Z,65535.0
2018-07-14T09:45:00.944Z,65535.0
2018-07-14T10:00:00.932Z,65535.0
2018-07-14T10:15:01.021Z,65535.0
2018-07-14T10:18:00.810Z,65383.0
2018-07-14T10:19:00.785Z,65007.2
2018-07-14T10:20:00.932Z,64559.6
2018-07-14T10:21:00.786Z,64241.1
2018-07-14T10:22:00.813Z,64148.5
2018-07-14T10:30:01.022Z,64148.5
2018-07-14T10:33:00.813Z,64300.5
2018-07-14T10:34:00.826Z,64676.3
2018-07-14T10:35:00.936Z,65123.9
2018-07-14T10:36:00.794Z,65442.5
2018-07-14T10:37:00.831Z,65535.0
2018-07-14T10:45:00.939Z,65535.0
2018-07-14T11:00:01.041Z,65535.0
2018-07-14T11:15:01.043Z,65535.0
2018-07-14T11:30:01.146Z,65535.0
2018-07-14T11:45:00.956Z,65535.0
2018-07-14T12:00:01.159Z,65535.0
2018-07-14T12:15:00.991Z,65535.0
2018-07-14T12:30:01.105Z,65535.0
2018-07-14T12:45:00.974Z,65535.0
2018-07-14T13:00:01.105Z,65535.0
2018-07-14T13:15:00.983Z,65535.0
2018-07-14T13:30:01.163Z,65535.0
2018-07-14T13:45:00.999Z,65535.0
2018-07-14T14:00:01.002Z,65535.0
2018-07-14T14:15:01.017Z,65535.0
2018-07-14T14:30:01.096Z,65535.0
2018-07-14T14:45:01.018Z,65535.0
2018-07-14T15:00:01.079Z,65535.0
2018-07-14T15:15:01.034Z,65535.0
2018-07-14T15:30:01.160Z,65535.0
2018-07-14T15:45:01.041Z,65535.0
2018-07-14T16:00:01.105Z,65535.0
2018-07-14T16:15:01.190Z,65535.0
2018-07-14T16:27:01.074Z,64377.7
2018-07-14T16:28:00.906Z,63833.3
2018-07-14T16:29:00.912Z,62481.1
2018-07-14T16:30:00.909Z,61165.2
2018-07-14T16:31:00.877Z,60288.1
2018-07-14T16:36:00.915Z,60118.1
2018-07-14T16:37:00.935Z,59948.2
2018-07-14T16:40:06.115Z,59947.2
2018-07-14T16:41:00.907Z,59840.7
2018-07-14T16:42:00.911Z,60998.0
2018-07-14T16:43:00.910Z,61542.4
2018-07-14T16:44:00.908Z,62894.5
2018-07-14T16:45:01.102Z,63580.0
2018-07-14T16:46:00.878Z,63741.7
2018-07-14T16:47:00.914Z,62897.1
2018-07-14T16:48:00.909Z,61928.0
2018-07-14T16:49:00.916Z,60834.1
2018-07-14T16:50:01.076Z,59770.2
2018-07-14T16:51:00.879Z,59206.9
2018-07-14T16:52:00.945Z,59055.6
2018-07-14T16:53:00.915Z,58876.1
2018-07-14T16:55:01.099Z,58877.1
2018-07-14T16:56:00.914Z,58983.7
2018-07-14T17:00:01.186Z,59614.1
2018-07-14T17:01:00.938Z,60022.1
2018-07-14T17:02:00.927Z,59995.3
2018-07-14T17:03:00.920Z,59804.1
2018-07-14T17:04:00.913Z,59745.7
2018-07-14T17:05:01.057Z,59839.5
2018-07-14T17:06:00.950Z,59821.5
2018-07-14T17:07:00.885Z,59793.6
2018-07-14T17:08:00.919Z,59973.1
2018-07-14T17:15:01.192Z,59973.1
2018-07-14T17:16:00.921Z,60280.4
2018-07-14T17:17:00.916Z,61151.9
2018-07-14T17:18:00.914Z,62312.2
2018-07-14T17:19:00.919Z,63464.4
2018-07-14T17:20:01.064Z,64434.5
2018-07-14T17:21:00.916Z,65185.9
2018-07-14T17:22:00.889Z,65535.0
2018-07-14T17:26:01.101Z,65472.3
2018-07-14T17:27:00.960Z,64807.0
2018-07-14T17:28:00.919Z,63640.8
2018-07-14T17:29:00.919Z,62109.9
2018-07-14T17:30:00.924Z,60335.7
2018-07-14T17:31:06.115Z,58415.5
2018-07-14T17:32:00.918Z,56402.5
2018-07-14T17:33:00.920Z,54349.0
2018-07-14T17:34:00.919Z,52372.5
2018-07-14T17:35:00.921Z,50465.9
2018-07-14T17:36:01.070Z,48645.9
2018-07-14T17:37:00.936Z,47104.2
2018-07-14T17:38:00.923Z,45877.9
2018-07-14T17:39:00.929Z,44646.1
2018-07-14T17:40:00.924Z,43263.7
2018-07-14T17:41:01.037Z,41762.7
2018-07-14T17:42:00.922Z,40748.5
2018-07-14T17:43:00.952Z,40107.9
2018-07-14T17:44:00.924Z,39612.4
2018-07-14T17:45:00.922Z,39184.3
2018-07-14T17:46:01.070Z,38757.5
2018-07-14T17:47:00.957Z,38313.4
2018-07-14T17:48:00.924Z,37860.3
2018-07-14T17:49:00.893Z,37311.2
2018-07-14T17:50:00.932Z,36672.9
2018-07-14T17:51:01.067Z,35934.2
2018-07-14T17:52:01.145Z,34907.2
2018-07-14T17:53:00.897Z,33555.7
2018-07-14T17:54:00.924Z,32197.1
2018-07-14T17:55:00.926Z,30978.1
2018-07-14T17:56:01.076Z,29926.3
2018-07-14T17:57:00.956Z,28978.7
2018-07-14T17:58:00.926Z,28146.3
2018-07-14T17:59:00.897Z,27522.5
2018-07-14T18:00:00.950Z,27065.1
2018-07-14T18:01:01.076Z,26741.9
2018-07-14T18:02:00.953Z,26517.5
2018-07-14T18:03:00.929Z,26332.3
2018-07-14T18:04:00.965Z,26150.3
2018-07-14T18:05:00.931Z,25972.3
2018-07-14T18:06:01.079Z,25795.0
2018-07-14T18:07:00.934Z,25614.6
2018-07-14T18:08:00.931Z,25431.7
2018-07-14T18:09:00.980Z,25251.6
2018-07-14T18:10:00.935Z,25073.7
2018-07-14T18:11:01.084Z,24900.0
2018-07-14T18:12:00.932Z,24728.1
2018-07-14T18:13:00.904Z,24558.6
2018-07-14T18:14:00.968Z,24389.1
2018-07-14T18:15:00.936Z,24217.4
2018-07-14T18:16:01.085Z,24044.3
2018-07-14T18:17:00.979Z,23869.8
2018-07-14T18:18:00.931Z,23692.7
2018-07-14T18:19:00.973Z,23519.9
2018-07-14T18:20:00.939Z,23350.4
2018-07-14T18:21:01.073Z,23183.1
2018-07-14T18:22:00.932Z,23018.4
2018-07-14T18:23:00.902Z,22853.9
2018-07-14T18:24:00.968Z,22686.7
2018-07-14T18:25:00.931Z,22516.9
2018-07-14T18:26:01.147Z,22345.5
2018-07-14T18:27:00.935Z,22171.3
2018-07-14T18:28:00.901Z,21994.0
2018-07-14T18:29:00.980Z,21817.2
2018-07-14T18:30:00.942Z,21641.1
2018-07-14T18:31:01.120Z,21465.1
2018-07-14T18:32:00.934Z,21290.0
2018-07-14T18:33:00.959Z,21115.3
2018-07-14T18:34:00.964Z,20939.7
2018-07-14T18:35:00.936Z,20763.9
2018-07-14T18:36:01.114Z,20586.1
2018-07-14T18:37:00.965Z,20404.5
2018-07-14T18:38:00.937Z,20218.5
2018-07-14T18:39:00.936Z,20029.5
2018-07-14T18:40:00.914Z,19837.0
2018-07-14T18:41:06.085Z,19641.9
2018-07-14T18:42:00.936Z,19445.6
2018-07-14T18:43:00.939Z,19248.3
2018-07-14T18:44:00.997Z,19047.7
2018-07-14T18:45:00.942Z,18843.6
2018-07-14T18:46:01.111Z,18638.2
2018-07-14T18:47:00.943Z,18431.3
2018-07-14T18:48:00.943Z,18223.0
2018-07-14T18:49:00.909Z,18011.4
2018-07-14T18:50:00.913Z,17796.3
2018-07-14T18:51:01.112Z,17577.9
2018-07-14T18:52:00.939Z,17358.0
2018-07-14T18:53:00.943Z,17138.3
2018-07-14T18:54:00.953Z,16918.7
2018-07-14T18:55:00.910Z,16698.3
2018-07-14T18:56:01.119Z,16476.9
2018-07-14T18:57:00.942Z,16254.1
2018-07-14T18:58:00.948Z,16029.7
2018-07-14T18:59:00.942Z,15803.7
2018-07-14T19:00:00.946Z,15575.8
2018-07-14T19:01:01.122Z,15345.5
2018-07-14T19:02:00.946Z,15112.9
2018-07-14T19:03:00.952Z,14879.1
2018-07-14T19:04:00.948Z,14644.9
2018-07-14T19:05:00.946Z,14409.7
2018-07-14T19:06:01.111Z,14173.8
2018-07-14T19:07:00.981Z,13937.9
2018-07-14T19:08:00.945Z,13700.7
2018-07-14T19:09:00.953Z,13461.8
2018-07-14T19:10:00.949Z,13221.1
2018-07-14T19:11:01.101Z,12978.1
2018-07-14T19:12:00.974Z,12732.5
2018-07-14T19:13:00.976Z,12484.5
2018-07-14T19:14:01.012Z,12234.7
2018-07-14T19:15:00.973Z,11984.1
2018-07-14T19:16:01.094Z,11732.5
2018-07-14T19:17:00.998Z,11479.1
2018-07-14T19:18:00.957Z,11223.6
2018-07-14T19:19:00.957Z,10967.1
2018-07-14T19:20:00.958Z,10710.5
2018-07-14T19:21:01.122Z,10453.8
2018-07-14T19:22:00.984Z,10196.3
2018-07-14T19:23:00.951Z,9938.7
2018-07-14T19:24:00.956Z,9681.6
2018-07-14T19:25:00.952Z,9425.3
2018-07-14T19:26:01.215Z,9170.3
2018-07-14T19:27:00.988Z,8916.5
2018-07-14T19:28:00.956Z,8664.1
2018-07-14T19:29:00.922Z,8412.9
2018-07-14T19:30:00.925Z,8162.6
2018-07-14T19:31:01.134Z,7913.1
2018-07-14T19:32:00.993Z,7665.1
2018-07-14T19:33:00.957Z,7418.7
2018-07-14T19:34:00.960Z,7174.1
2018-07-14T19:35:01.003Z,6931.5
2018-07-14T19:36:01.104Z,6691.1
2018-07-14T19:37:00.996Z,6452.4
2018-07-14T19:38:00.933Z,6215.5
2018-07-14T19:39:00.956Z,5980.8
2018-07-14T19:40:00.963Z,5748.6
2018-07-14T19:41:01.108Z,5519.3
2018-07-14T19:42:01.040Z,5293.3
2018-07-14T19:43:00.962Z,5070.5
2018-07-14T19:44:00.966Z,4851.0
2018-07-14T19:45:00.971Z,4635.1
2018-07-14T19:46:01.106Z,4423.1
2018-07-14T19:47:00.998Z,4215.3
2018-07-14T19:48:00.971Z,4011.7
2018-07-14T19:49:00.964Z,3812.5
2018-07-14T19:50:00.966Z,3617.8
2018-07-14T19:51:01.149Z,3428.1
2018-07-14T19:52:00.994Z,3243.9
2018-07-14T19:53:00.970Z,3065.8
2018-07-14T19:54:00.942Z,2893.8
2018-07-14T19:55:00.938Z,2727.7
2018-07-14T19:56:01.141Z,2567.3
2018-07-14T19:57:00.997Z,2412.8
2018-07-14T19:58:00.969Z,2264.6
2018-07-14T19:59:01.006Z,2122.6
2018-07-14T20:00:00.969Z,1986.7
2018-07-14T20:01:01.126Z,1857.2
2018-07-14T20:02:00.975Z,1733.7
2018-07-14T20:03:00.972Z,1616.1
2018-07-14T20:04:01.002Z,1504.1
2018-07-14T20:05:00.974Z,1397.6
2018-07-14T20:06:01.109Z,1296.4
2018-07-14T20:07:00.942Z,1200.4
2018-07-14T20:08:00.942Z,1109.6
2018-07-14T20:09:01.011Z,1023.8
2018-07-14T20:10:00.976Z,942.9
2018-07-14T20:11:01.123Z,866.9
2018-07-14T20:12:00.940Z,795.4
2018-07-14T20:13:00.973Z,728.3
2018-07-14T20:14:01.018Z,665.5
2018-07-14T20:15:00.980Z,606.8
2018-07-14T20:16:01.118Z,552.1
2018-07-14T20:17:00.982Z,501.3
2018-07-14T20:18:00.948Z,454.4
2018-07-14T20:19:01.007Z,411.2
2018-07-14T20:20:00.977Z,371.6
2018-07-14T20:21:01.125Z,335.4
2018-07-14T20:22:00.949Z,302.4
2018-07-14T20:23:00.981Z,272.3
2018-07-14T20:24:01.012Z,244.8
2018-07-14T20:25:00.979Z,219.9
2018-07-14T20:26:01.123Z,197.1
2018-07-14T20:27:00.951Z,176.5
2018-07-14T20:28:00.984Z,157.9
2018-07-14T20:29:01.024Z,141.1
2018-07-14T20:30:01.008Z,126.0
2018-07-14T20:31:01.167Z,112.3
2018-07-14T20:32:00.979Z,100.2
2018-07-14T20:33:00.978Z,89.3
2018-07-14T20:34:01.011Z,79.7
2018-07-14T20:35:01.082Z,71.0
2018-07-14T20:36:01.123Z,63.3
2018-07-14T20:37:00.947Z,56.4
2018-07-14T20:38:00.952Z,50.3
2018-07-14T20:39:01.013Z,44.8
2018-07-14T20:40:00.948Z,39.9
2018-07-14T20:41:01.123Z,35.7
2018-07-14T20:42:00.953Z,31.9
2018-07-14T20:43:00.982Z,28.5
2018-07-14T20:44:01.024Z,25.5
2018-07-14T20:45:00.994Z,22.7
2018-07-14T20:46:01.127Z,20.3
2018-07-14T20:47:00.982Z,18.2
2018-07-14T20:48:00.952Z,16.3
2018-07-14T20:49:01.019Z,14.6
2018-07-14T20:50:01.015Z,13.1
2018-07-14T20:51:01.139Z,11.8
2018-07-14T20:52:00.951Z,10.5
2018-07-14T20:53:00.950Z,9.5
2018-07-14T20:54:01.018Z,8.5
2018-07-14T20:55:00.982Z,7.7
2018-07-14T20:56:01.124Z,6.9
2018-07-14T20:57:00.983Z,6.2
2018-07-14T20:58:00.995Z,5.5
2018-07-14T20:59:01.022Z,4.9
2018-07-14T21:00:00.982Z,4.5
2018-07-14T21:01:01.136Z,4.1
2018-07-14T21:02:00.985Z,3.7
2018-07-14T21:03:00.983Z,3.3
2018-07-14T21:04:01.020Z,3.0
2018-07-14T21:05:00.986Z,2.7
2018-07-14T21:06:01.163Z,2.4
2018-07-14T21:07:00.956Z,2.2
2018-07-14T21:08:00.988Z,2.0
2018-07-14T21:09:01.013Z,1.8
2018-07-14T21:10:00.993Z,1.7
2018-07-14T21:11:01.133Z,1.5
2018-07-14T21:12:00.957Z,1.4
2018-07-14T21:13:01.021Z,1.3
2018-07-14T21:15:00.962Z,1.2
2018-07-14T21:16:01.147Z,1.1
2018-07-14T21:17:00.987Z,1.0
2018-07-14T21:18:00.990Z,0.9
2018-07-14T21:19:00.991Z,0.8
2018-07-14T21:20:00.989Z,0.7
2018-07-14T21:22:01.136Z,0.6
2018-07-14T21:23:00.957Z,0.5
2018-07-14T21:25:00.991Z,0.4
2018-07-14T21:26:01.043Z,0.3
2018-07-14T21:28:01.138Z,0.2
2018-07-14T21:29:00.959Z,0.1
2018-07-14T21:30:00.990Z,0.1
